createdAt,value
2018-06-15T00:00:53.544Z,16.29
2018-06-15T00:01:53.525Z,16.30
2018-06-15T00:02:53.528Z,16.26
2018-06-15T00:03:53.529Z,16.14
2018-06-15T00:04:53.509Z,16.27
2018-06-15T00:05:53.510Z,16.17
2018-06-15T00:06:53.501Z,16.23
2018-06-15T00:07:53.495Z,16.25
2018-06-15T00:08:53.494Z,16.22
2018-06-15T00:09:53.489Z,16.32
2018-06-15T00:10:53.481Z,16.23
2018-06-15T00:11:53.476Z,16.22
2018-06-15T00:12:53.476Z,16.23
2018-06-15T00:13:53.476Z,16.16
2018-06-15T00:14:53.461Z,16.17
2018-06-15T00:15:53.459Z,16.17
2018-06-15T00:16:53.458Z,16.29
2018-06-15T00:17:53.455Z,16.22
2018-06-15T00:18:53.441Z,16.16
2018-06-15T00:19:53.446Z,16.10
2018-06-15T00:20:53.436Z,16.11
2018-06-15T00:21:53.428Z,16.16
2018-06-15T00:22:53.422Z,16.27
2018-06-15T00:23:53.419Z,16.18
2018-06-15T00:24:53.411Z,16.22
2018-06-15T00:25:53.412Z,16.27
2018-06-15T00:26:53.402Z,16.26
2018-06-15T00:27:53.394Z,16.16
2018-06-15T00:28:53.390Z,16.16
2018-06-15T00:29:53.388Z,16.08
2018-06-15T00:30:53.383Z,16.13
2018-06-15T00:31:53.383Z,16.08
2018-06-15T00:32:53.373Z,15.96
2018-06-15T00:33:53.369Z,16.04
2018-06-15T00:34:53.360Z,15.96
2018-06-15T00:35:53.361Z,15.93
2018-06-15T00:36:53.353Z,16.03
2018-06-15T00:37:53.356Z,15.84
2018-06-15T00:38:53.343Z,15.88
2018-06-15T00:39:53.347Z,15.92
2018-06-15T00:40:53.332Z,15.81
2018-06-15T00:41:53.336Z,15.77
2018-06-15T00:42:53.332Z,15.85
2018-06-15T00:43:53.318Z,15.91
2018-06-15T00:44:53.315Z,15.88
2018-06-15T00:45:53.322Z,15.89
2018-06-15T00:46:53.304Z,15.78
2018-06-15T00:47:53.301Z,15.84
2018-06-15T00:48:53.302Z,15.71
2018-06-15T00:49:53.300Z,15.70
2018-06-15T00:50:53.284Z,15.70
2018-06-15T00:51:53.286Z,15.68
2018-06-15T00:52:53.278Z,15.64
2018-06-15T00:53:53.274Z,15.67
2018-06-15T00:54:53.270Z,15.70
2018-06-15T00:55:53.261Z,15.66
2018-06-15T00:56:53.256Z,15.71
2018-06-15T00:57:53.251Z,15.70
2018-06-15T00:58:53.248Z,15.66
2018-06-15T00:59:53.246Z,15.59
2018-06-15T01:00:53.239Z,15.62
2018-06-15T01:01:53.232Z,15.62
2018-06-15T01:02:53.236Z,15.62
2018-06-15T01:03:53.232Z,15.62
2018-06-15T01:04:53.220Z,15.56
2018-06-15T01:05:53.224Z,15.55
2018-06-15T01:06:53.212Z,15.55
2018-06-15T01:07:53.206Z,15.53
2018-06-15T01:08:53.214Z,15.62
2018-06-15T01:09:53.196Z,15.62
2018-06-15T01:10:53.195Z,15.55
2018-06-15T01:11:53.186Z,15.62
2018-06-15T01:12:53.185Z,15.58
2018-06-15T01:13:53.176Z,15.64
2018-06-15T01:14:53.173Z,15.53
2018-06-15T01:15:53.168Z,15.52
2018-06-15T01:16:53.172Z,15.59
2018-06-15T01:17:53.166Z,15.56
2018-06-15T01:18:53.151Z,15.48
2018-06-15T01:19:53.148Z,15.51
2018-06-15T01:20:53.143Z,15.44
2018-06-15T01:21:53.140Z,15.40
2018-06-15T01:22:53.143Z,15.40
2018-06-15T01:23:53.129Z,15.38
2018-06-15T01:24:53.127Z,15.40
2018-06-15T01:25:53.125Z,15.35
2018-06-15T01:26:53.122Z,15.46
2018-06-15T01:27:53.122Z,15.38
2018-06-15T01:28:53.104Z,15.35
2018-06-15T01:29:53.103Z,15.34
2018-06-15T01:30:53.095Z,15.37
2018-06-15T01:31:53.095Z,15.34
2018-06-15T01:32:53.085Z,15.33
2018-06-15T01:33:53.087Z,15.37
2018-06-15T01:34:53.085Z,15.40
2018-06-15T01:35:53.081Z,15.34
2018-06-15T01:36:53.066Z,15.33
2018-06-15T01:37:53.078Z,15.28
2018-06-15T01:38:53.058Z,15.31
2018-06-15T01:39:53.052Z,15.28
2018-06-15T01:40:53.060Z,15.23
2018-06-15T01:41:53.049Z,15.33
2018-06-15T01:42:53.042Z,15.28
2018-06-15T01:43:53.041Z,15.27
2018-06-15T01:44:53.033Z,15.27
2018-06-15T01:45:53.024Z,15.19
2018-06-15T01:46:53.016Z,15.18
2018-06-15T01:47:53.025Z,15.07
2018-06-15T01:48:53.009Z,15.11
2018-06-15T01:49:53.006Z,15.09
2018-06-15T01:50:53.004Z,15.20
2018-06-15T01:51:53.001Z,15.22
2018-06-15T01:52:53.001Z,15.20
2018-06-15T01:53:52.984Z,15.20
2018-06-15T01:54:52.985Z,15.28
2018-06-15T01:55:52.989Z,15.34
2018-06-15T01:56:52.971Z,15.38
2018-06-15T01:57:52.970Z,15.34
2018-06-15T01:58:52.962Z,15.35
2018-06-15T01:59:53.120Z,15.40
2018-06-15T02:00:52.949Z,15.44
2018-06-15T02:01:53.036Z,15.34
2018-06-15T02:02:52.951Z,15.27
2018-06-15T02:03:53.016Z,15.28
2018-06-15T02:04:52.930Z,15.18
2018-06-15T02:05:53.041Z,15.16
2018-06-15T02:06:52.923Z,15.15
2018-06-15T02:07:53.009Z,15.05
2018-06-15T02:08:52.921Z,15.03
2018-06-15T02:09:52.904Z,15.07
2018-06-15T02:10:52.897Z,15.11
2018-06-15T02:11:52.894Z,15.11
2018-06-15T02:12:52.894Z,15.11
2018-06-15T02:13:52.885Z,15.15
2018-06-15T02:14:52.888Z,15.09
2018-06-15T02:15:52.882Z,15.12
2018-06-15T02:16:52.873Z,15.12
2018-06-15T02:17:52.864Z,15.19
2018-06-15T02:18:52.857Z,15.12
2018-06-15T02:19:52.853Z,15.11
2018-06-15T02:20:52.848Z,15.16
2018-06-15T02:21:52.860Z,15.13
2018-06-15T02:22:52.851Z,15.07
2018-06-15T02:23:52.846Z,15.13
2018-06-15T02:24:52.834Z,15.20
2018-06-15T02:25:52.826Z,15.22
2018-06-15T02:26:52.822Z,15.31
2018-06-15T02:27:52.820Z,15.23
2018-06-15T02:28:52.813Z,15.20
2018-06-15T02:29:52.813Z,15.25
2018-06-15T02:30:52.795Z,15.18
2018-06-15T02:31:52.791Z,15.13
2018-06-15T02:32:52.795Z,15.18
2018-06-15T02:33:52.780Z,15.11
2018-06-15T02:34:52.774Z,15.05
2018-06-15T02:35:52.773Z,15.05
2018-06-15T02:36:52.765Z,15.03
2018-06-15T02:37:52.777Z,14.87
2018-06-15T02:38:52.762Z,14.95
2018-06-15T02:39:52.753Z,14.93
2018-06-15T02:40:52.748Z,14.83
2018-06-15T02:41:52.743Z,14.80
2018-06-15T02:42:52.737Z,14.79
2018-06-15T02:43:52.741Z,14.82
2018-06-15T02:44:52.722Z,14.75
2018-06-15T02:45:52.718Z,14.75
2018-06-15T02:46:52.716Z,14.75
2018-06-15T02:47:52.715Z,14.71
2018-06-15T02:48:52.753Z,14.72
2018-06-15T02:49:52.698Z,14.72
2018-06-15T02:50:52.698Z,14.83
2018-06-15T02:51:52.687Z,14.75
2018-06-15T02:52:52.681Z,14.80
2018-06-15T02:53:52.686Z,14.78
2018-06-15T02:54:52.679Z,14.80
2018-06-15T02:55:52.664Z,14.72
2018-06-15T02:56:52.667Z,14.86
2018-06-15T02:57:52.658Z,14.86
2018-06-15T02:58:52.675Z,14.69
2018-06-15T02:59:52.649Z,14.83
2018-06-15T03:00:52.643Z,14.75
2018-06-15T03:01:52.633Z,14.79
2018-06-15T03:02:52.626Z,14.67
2018-06-15T03:03:52.621Z,14.61
2018-06-15T03:04:52.620Z,14.66
2018-06-15T03:05:52.615Z,14.64
2018-06-15T03:06:52.612Z,14.67
2018-06-15T03:07:52.606Z,14.63
2018-06-15T03:08:52.605Z,14.61
2018-06-15T03:09:52.593Z,14.69
2018-06-15T03:10:52.585Z,14.63
2018-06-15T03:11:52.588Z,14.63
2018-06-15T03:12:52.583Z,14.63
2018-06-15T03:13:52.573Z,14.60
2018-06-15T03:14:52.569Z,14.57
2018-06-15T03:15:52.562Z,14.64
2018-06-15T03:16:52.553Z,14.56
2018-06-15T03:17:52.563Z,14.56
2018-06-15T03:18:52.540Z,14.63
2018-06-15T03:19:52.546Z,14.63
2018-06-15T03:20:52.541Z,14.69
2018-06-15T03:21:52.532Z,14.87
2018-06-15T03:22:52.516Z,14.79
2018-06-15T03:23:52.521Z,14.80
2018-06-15T03:24:52.508Z,14.90
2018-06-15T03:25:52.503Z,15.04
2018-06-15T03:26:52.496Z,15.03
2018-06-15T03:27:52.496Z,15.05
2018-06-15T03:28:52.495Z,15.03
2018-06-15T03:29:52.484Z,15.07
2018-06-15T03:30:52.481Z,15.13
2018-06-15T03:31:52.469Z,15.12
2018-06-15T03:32:52.466Z,15.03
2018-06-15T03:33:52.467Z,15.01
2018-06-15T03:34:52.450Z,15.04
2018-06-15T03:35:52.445Z,15.09
2018-06-15T03:36:52.441Z,15.04
2018-06-15T03:37:52.435Z,14.95
2018-06-15T03:38:52.439Z,14.94
2018-06-15T03:39:52.434Z,14.93
2018-06-15T03:40:52.418Z,14.86
2018-06-15T03:41:52.416Z,14.91
2018-06-15T03:42:52.409Z,14.97
2018-06-15T03:43:52.401Z,14.94
2018-06-15T03:44:52.401Z,14.94
2018-06-15T03:45:52.397Z,14.91
2018-06-15T03:46:52.397Z,14.93
2018-06-15T03:47:52.386Z,14.94
2018-06-15T03:48:52.385Z,14.87
2018-06-15T03:49:52.378Z,14.80
2018-06-15T03:50:52.365Z,14.82
2018-06-15T03:51:52.360Z,14.85
2018-06-15T03:52:52.361Z,14.82
2018-06-15T03:53:52.349Z,14.79
2018-06-15T03:54:52.339Z,14.79
2018-06-15T03:55:52.339Z,14.71
2018-06-15T03:56:52.338Z,14.90
2018-06-15T03:57:52.322Z,14.74
2018-06-15T03:58:52.369Z,14.87
2018-06-15T03:59:52.316Z,14.72
2018-06-15T04:00:52.315Z,14.75
2018-06-15T04:01:52.302Z,14.66
2018-06-15T04:02:52.296Z,14.75
2018-06-15T04:03:52.291Z,14.79
2018-06-15T04:04:52.294Z,14.93
2018-06-15T04:05:52.299Z,14.95
2018-06-15T04:06:52.273Z,14.94
2018-06-15T04:07:52.272Z,14.97
2018-06-15T04:08:52.270Z,14.83
2018-06-15T04:09:52.262Z,14.98
2018-06-15T04:10:52.257Z,15.01
2018-06-15T04:11:52.246Z,14.93
2018-06-15T04:12:52.243Z,15.09
2018-06-15T04:13:52.241Z,15.13
2018-06-15T04:14:52.235Z,15.19
2018-06-15T04:15:52.225Z,15.19
2018-06-15T04:16:52.220Z,15.18
2018-06-15T04:17:52.220Z,15.28
2018-06-15T04:18:52.218Z,15.31
2018-06-15T04:19:52.318Z,15.34
2018-06-15T04:20:52.204Z,15.38
2018-06-15T04:21:52.201Z,15.37
2018-06-15T04:22:52.189Z,15.52
2018-06-15T04:23:52.189Z,15.58
2018-06-15T04:24:52.180Z,15.58
2018-06-15T04:25:52.175Z,15.64
2018-06-15T04:26:52.188Z,15.88
2018-06-15T04:27:52.170Z,15.89
2018-06-15T04:28:52.160Z,16.03
2018-06-15T04:29:52.164Z,16.08
2018-06-15T04:30:52.156Z,16.11
2018-06-15T04:31:52.150Z,16.14
2018-06-15T04:32:52.143Z,16.18
2018-06-15T04:33:52.136Z,16.30
2018-06-15T04:34:52.132Z,16.34
2018-06-15T04:35:52.126Z,16.34
2018-06-15T04:36:52.126Z,16.33
2018-06-15T04:37:52.130Z,16.36
2018-06-15T04:38:52.117Z,16.41
2018-06-15T04:39:52.109Z,16.40
2018-06-15T04:40:52.114Z,16.41
2018-06-15T04:41:52.103Z,16.45
2018-06-15T04:42:52.096Z,16.57
2018-06-15T04:43:52.108Z,16.66
2018-06-15T04:44:52.100Z,16.96
2018-06-15T04:45:52.089Z,17.30
2018-06-15T04:46:52.077Z,17.42
2018-06-15T04:47:52.096Z,17.74
2018-06-15T04:48:52.072Z,17.96
2018-06-15T04:49:52.071Z,18.35
2018-06-15T04:50:52.067Z,18.79
2018-06-15T04:51:52.060Z,19.31
2018-06-15T04:52:52.056Z,19.79
2018-06-15T04:53:52.055Z,20.04
2018-06-15T04:54:52.050Z,20.60
2018-06-15T04:55:52.049Z,21.11
2018-06-15T04:56:52.062Z,21.59
2018-06-15T04:57:52.046Z,22.06
2018-06-15T04:58:52.045Z,22.12
2018-06-15T04:59:52.041Z,22.06
2018-06-15T05:00:52.039Z,22.11
2018-06-15T05:01:52.043Z,21.98
2018-06-15T05:02:52.054Z,21.86
2018-06-15T05:03:52.043Z,21.37
2018-06-15T05:04:52.044Z,20.94
2018-06-15T05:05:52.040Z,20.66
2018-06-15T05:06:52.044Z,20.40
2018-06-15T05:07:52.040Z,20.16
2018-06-15T05:08:52.039Z,20.02
2018-06-15T05:09:52.047Z,20.05
2018-06-15T05:10:52.041Z,20.01
2018-06-15T05:11:52.048Z,19.90
2018-06-15T05:12:52.045Z,19.89
2018-06-15T05:13:52.050Z,19.87
2018-06-15T05:14:52.041Z,19.87
2018-06-15T05:15:52.046Z,19.90
2018-06-15T05:16:52.041Z,19.76
2018-06-15T05:17:52.049Z,19.61
2018-06-15T05:18:52.041Z,19.52
2018-06-15T05:19:52.043Z,19.34
2018-06-15T05:20:52.040Z,19.25
2018-06-15T05:21:52.036Z,19.17
2018-06-15T05:22:52.037Z,19.06
2018-06-15T05:23:52.034Z,18.97
2018-06-15T05:24:52.058Z,19.05
2018-06-15T05:25:52.099Z,18.94
2018-06-15T05:26:52.039Z,18.96
2018-06-15T05:27:52.043Z,18.87
2018-06-15T05:28:52.028Z,18.78
2018-06-15T05:29:52.023Z,18.76
2018-06-15T05:30:52.029Z,18.66
2018-06-15T05:31:52.020Z,18.56
2018-06-15T05:32:52.028Z,18.66
2018-06-15T05:33:52.025Z,18.64
2018-06-15T05:34:52.015Z,18.72
2018-06-15T05:35:52.013Z,18.74
2018-06-15T05:36:52.019Z,18.78
2018-06-15T05:37:52.010Z,18.86
2018-06-15T05:38:52.012Z,18.82
2018-06-15T05:39:52.017Z,19.05
2018-06-15T05:40:52.015Z,19.07
2018-06-15T05:41:52.012Z,19.15
2018-06-15T05:42:52.000Z,19.28
2018-06-15T05:43:52.000Z,19.34
2018-06-15T05:44:51.999Z,19.43
2018-06-15T05:45:51.991Z,19.50
2018-06-15T05:46:51.990Z,19.58
2018-06-15T05:47:51.987Z,19.65
2018-06-15T05:48:51.997Z,19.70
2018-06-15T05:49:52.018Z,19.72
2018-06-15T05:50:51.982Z,19.71
2018-06-15T05:51:51.982Z,19.78
2018-06-15T05:52:51.979Z,19.92
2018-06-15T05:53:51.977Z,19.92
2018-06-15T05:54:51.976Z,19.90
2018-06-15T05:55:51.976Z,19.92
2018-06-15T05:56:51.981Z,20.02
2018-06-15T05:57:51.981Z,20.13
2018-06-15T05:58:51.969Z,20.17
2018-06-15T05:59:51.973Z,20.26
2018-06-15T06:00:51.973Z,20.34
2018-06-15T06:01:51.963Z,20.33
2018-06-15T06:02:51.957Z,20.50
2018-06-15T06:03:51.972Z,20.56
2018-06-15T06:04:51.959Z,20.56
2018-06-15T06:05:51.954Z,20.63
2018-06-15T06:06:51.961Z,20.73
2018-06-15T06:07:51.958Z,20.75
2018-06-15T06:08:51.949Z,20.71
2018-06-15T06:09:51.957Z,20.51
2018-06-15T06:10:51.947Z,20.56
2018-06-15T06:11:51.953Z,20.46
2018-06-15T06:12:51.956Z,20.44
2018-06-15T06:13:51.944Z,20.41
2018-06-15T06:14:51.940Z,20.48
2018-06-15T06:15:51.938Z,20.46
2018-06-15T06:16:51.953Z,20.35
2018-06-15T06:17:51.942Z,20.37
2018-06-15T06:18:51.935Z,20.34
2018-06-15T06:19:51.993Z,20.51
2018-06-15T06:20:51.948Z,20.50
2018-06-15T06:21:51.946Z,20.54
2018-06-15T06:22:51.945Z,20.48
2018-06-15T06:23:51.938Z,20.46
2018-06-15T06:24:51.933Z,20.46
2018-06-15T06:25:51.926Z,20.50
2018-06-15T06:26:51.942Z,20.50
2018-06-15T06:27:51.929Z,20.53
2018-06-15T06:28:51.921Z,20.38
2018-06-15T06:29:51.937Z,20.54
2018-06-15T06:30:51.924Z,20.53
2018-06-15T06:31:51.916Z,20.53
2018-06-15T06:32:51.923Z,20.64
2018-06-15T06:33:51.914Z,20.58
2018-06-15T06:34:51.913Z,20.61
2018-06-15T06:35:51.913Z,20.73
2018-06-15T06:36:51.910Z,20.72
2018-06-15T06:37:51.921Z,20.78
2018-06-15T06:38:51.904Z,20.72
2018-06-15T06:39:51.907Z,20.75
2018-06-15T06:40:51.907Z,20.75
2018-06-15T06:41:51.904Z,20.79
2018-06-15T06:42:51.916Z,20.73
2018-06-15T06:43:51.915Z,20.76
2018-06-15T06:44:51.897Z,20.83
2018-06-15T06:45:51.896Z,20.82
2018-06-15T06:46:51.894Z,20.82
2018-06-15T06:47:51.901Z,20.93
2018-06-15T06:48:51.899Z,20.90
2018-06-15T06:49:51.892Z,20.91
2018-06-15T06:50:51.892Z,20.93
2018-06-15T06:51:51.891Z,20.94
2018-06-15T06:52:51.889Z,20.96
2018-06-15T06:53:51.887Z,20.87
2018-06-15T06:54:51.895Z,20.96
2018-06-15T06:55:51.885Z,20.93
2018-06-15T06:56:51.889Z,21.00
2018-06-15T06:57:51.890Z,20.97
2018-06-15T06:58:51.889Z,20.94
2018-06-15T06:59:51.896Z,20.94
2018-06-15T07:00:51.877Z,20.94
2018-06-15T07:01:51.876Z,20.82
2018-06-15T07:02:51.875Z,20.90
2018-06-15T07:03:51.873Z,20.87
2018-06-15T07:04:51.881Z,20.75
2018-06-15T07:05:51.870Z,20.78
2018-06-15T07:06:51.870Z,20.68
2018-06-15T07:07:51.878Z,20.75
2018-06-15T07:08:51.867Z,20.72
2018-06-15T07:09:51.868Z,20.64
2018-06-15T07:10:51.876Z,20.31
2018-06-15T07:11:51.870Z,20.30
2018-06-15T07:12:51.867Z,20.30
2018-06-15T07:13:51.861Z,20.19
2018-06-15T07:14:51.861Z,20.20
2018-06-15T07:15:51.863Z,20.26
2018-06-15T07:16:51.859Z,20.31
2018-06-15T07:17:51.855Z,20.07
2018-06-15T07:18:51.853Z,20.15
2018-06-15T07:19:51.863Z,20.19
2018-06-15T07:20:51.852Z,20.33
2018-06-15T07:21:51.850Z,20.46
2018-06-15T07:22:51.858Z,20.66
2018-06-15T07:23:51.853Z,20.64
2018-06-15T07:24:51.848Z,20.72
2018-06-15T07:25:51.845Z,20.98
2018-06-15T07:26:51.840Z,20.79
2018-06-15T07:27:51.855Z,20.96
2018-06-15T07:28:51.852Z,20.82
2018-06-15T07:29:51.844Z,20.94
2018-06-15T07:30:51.844Z,20.90
2018-06-15T07:31:51.839Z,20.94
2018-06-15T07:32:51.836Z,21.05
2018-06-15T07:33:51.843Z,21.19
2018-06-15T07:34:51.877Z,21.13
2018-06-15T07:35:51.832Z,21.28
2018-06-15T07:36:51.839Z,21.16
2018-06-15T07:37:51.830Z,21.01
2018-06-15T07:38:51.827Z,21.18
2018-06-15T07:39:51.830Z,21.05
2018-06-15T07:40:51.826Z,21.08
2018-06-15T07:41:51.830Z,21.05
2018-06-15T07:42:51.823Z,21.11
2018-06-15T07:43:51.828Z,21.01
2018-06-15T07:44:51.822Z,21.08
2018-06-15T07:45:51.822Z,21.08
2018-06-15T07:46:51.821Z,21.06
2018-06-15T07:47:51.823Z,20.93
2018-06-15T07:48:51.818Z,20.91
2018-06-15T07:49:51.821Z,21.00
2018-06-15T07:50:51.819Z,21.03
2018-06-15T07:51:51.814Z,21.16
2018-06-15T07:52:51.815Z,21.16
2018-06-15T07:53:51.820Z,21.18
2018-06-15T07:54:51.808Z,21.40
2018-06-15T07:55:51.811Z,21.61
2018-06-15T07:56:51.809Z,21.61
2018-06-15T07:57:51.823Z,21.52
2018-06-15T07:58:51.807Z,21.03
2018-06-15T07:59:51.808Z,21.22
2018-06-15T08:00:51.804Z,21.43
2018-06-15T08:01:51.816Z,21.43
2018-06-15T08:02:51.805Z,21.48
2018-06-15T08:03:51.802Z,21.71
2018-06-15T08:04:51.809Z,21.85
2018-06-15T08:05:51.799Z,21.93
2018-06-15T08:06:51.798Z,21.83
2018-06-15T08:07:51.799Z,21.79
2018-06-15T08:08:51.798Z,21.82
2018-06-15T08:09:51.799Z,21.94
2018-06-15T08:10:51.803Z,21.93
2018-06-15T08:11:51.796Z,21.90
2018-06-15T08:12:51.798Z,21.79
2018-06-15T08:13:51.796Z,21.73
2018-06-15T08:14:51.800Z,21.73
2018-06-15T08:15:51.848Z,21.77
2018-06-15T08:16:51.803Z,21.79
2018-06-15T08:17:51.792Z,21.98
2018-06-15T08:18:51.807Z,21.91
2018-06-15T08:19:51.801Z,21.98
2018-06-15T08:20:51.796Z,22.01
2018-06-15T08:21:51.800Z,22.11
2018-06-15T08:22:51.813Z,22.11
2018-06-15T08:23:51.788Z,22.23
2018-06-15T08:24:51.821Z,22.27
2018-06-15T08:25:51.790Z,22.38
2018-06-15T08:26:51.792Z,22.30
2018-06-15T08:27:51.846Z,22.21
2018-06-15T08:28:51.787Z,22.04
2018-06-15T08:29:51.791Z,21.86
2018-06-15T08:30:51.793Z,21.49
2018-06-15T08:31:51.815Z,21.70
2018-06-15T08:32:51.786Z,21.61
2018-06-15T08:33:51.785Z,21.77
2018-06-15T08:34:51.816Z,21.86
2018-06-15T08:35:51.789Z,21.89
2018-06-15T08:36:51.786Z,22.05
2018-06-15T08:37:51.807Z,21.94
2018-06-15T08:38:51.796Z,21.89
2018-06-15T08:39:51.783Z,21.99
2018-06-15T08:40:51.787Z,22.08
2018-06-15T08:41:51.789Z,22.05
2018-06-15T08:42:51.782Z,22.09
2018-06-15T08:43:51.782Z,21.91
2018-06-15T08:44:51.783Z,22.02
2018-06-15T08:45:51.779Z,22.11
2018-06-15T08:46:51.779Z,22.26
2018-06-15T08:47:51.779Z,22.30
2018-06-15T08:48:51.778Z,22.42
2018-06-15T08:49:51.780Z,22.44
2018-06-15T08:50:51.798Z,22.38
2018-06-15T08:51:51.780Z,22.39
2018-06-15T08:52:51.807Z,22.45
2018-06-15T08:53:51.779Z,22.54
2018-06-15T08:54:51.778Z,22.48
2018-06-15T08:55:51.777Z,22.69
2018-06-15T08:56:51.775Z,22.89
2018-06-15T08:57:51.789Z,22.96
2018-06-15T08:58:51.783Z,23.26
2018-06-15T08:59:51.775Z,23.29
2018-06-15T09:00:51.776Z,23.25
2018-06-15T09:01:51.849Z,23.29
2018-06-15T09:02:51.784Z,23.19
2018-06-15T09:03:51.786Z,23.15
2018-06-15T09:04:51.776Z,23.04
2018-06-15T09:05:51.776Z,22.99
2018-06-15T09:06:51.779Z,22.97
2018-06-15T09:07:51.778Z,22.94
2018-06-15T09:08:51.777Z,23.01
2018-06-15T09:09:51.777Z,22.78
2018-06-15T09:10:51.783Z,22.60
2018-06-15T09:11:51.781Z,22.52
2018-06-15T09:12:51.779Z,22.44
2018-06-15T09:13:51.780Z,22.38
2018-06-15T09:14:51.786Z,22.15
2018-06-15T09:15:51.783Z,21.93
2018-06-15T09:16:51.784Z,22.01
2018-06-15T09:17:51.780Z,21.98
2018-06-15T09:18:51.785Z,21.85
2018-06-15T09:19:51.777Z,21.93
2018-06-15T09:20:51.786Z,21.93
2018-06-15T09:21:51.782Z,21.94
2018-06-15T09:22:51.777Z,21.99
2018-06-15T09:23:51.780Z,22.01
2018-06-15T09:24:51.785Z,21.99
2018-06-15T09:25:51.784Z,22.04
2018-06-15T09:26:51.784Z,21.98
2018-06-15T09:27:51.779Z,22.08
2018-06-15T09:28:51.776Z,22.11
2018-06-15T09:29:51.776Z,22.26
2018-06-15T09:30:51.786Z,22.29
2018-06-15T09:31:51.785Z,22.41
2018-06-15T09:32:51.784Z,22.42
2018-06-15T09:33:51.775Z,22.46
2018-06-15T09:34:51.777Z,22.60
2018-06-15T09:35:51.773Z,22.66
2018-06-15T09:36:51.780Z,22.63
2018-06-15T09:37:51.785Z,22.72
2018-06-15T09:38:51.775Z,22.85
2018-06-15T09:39:51.785Z,22.69
2018-06-15T09:40:51.774Z,22.72
2018-06-15T09:41:51.774Z,22.69
2018-06-15T09:42:51.770Z,22.69
2018-06-15T09:43:51.777Z,22.86
2018-06-15T09:44:51.780Z,22.86
2018-06-15T09:45:51.772Z,22.91
2018-06-15T09:46:51.771Z,22.91
2018-06-15T09:47:51.770Z,23.04
2018-06-15T09:48:51.776Z,23.12
2018-06-15T09:49:51.772Z,22.93
2018-06-15T09:50:51.780Z,22.89
2018-06-15T09:51:51.784Z,23.00
2018-06-15T09:52:51.821Z,23.06
2018-06-15T09:53:51.834Z,23.07
2018-06-15T09:54:51.772Z,23.12
2018-06-15T09:55:51.772Z,23.11
2018-06-15T09:56:51.770Z,23.16
2018-06-15T09:57:51.780Z,23.22
2018-06-15T09:58:51.771Z,23.09
2018-06-15T09:59:51.771Z,23.06
2018-06-15T10:00:51.774Z,23.11
2018-06-15T10:01:51.784Z,23.19
2018-06-15T10:02:51.772Z,23.39
2018-06-15T10:03:51.772Z,23.35
2018-06-15T10:04:51.774Z,23.47
2018-06-15T10:05:51.780Z,23.45
2018-06-15T10:06:51.775Z,23.54
2018-06-15T10:07:51.775Z,23.47
2018-06-15T10:08:51.776Z,23.71
2018-06-15T10:09:51.788Z,23.79
2018-06-15T10:10:51.779Z,23.90
2018-06-15T10:11:51.774Z,24.09
2018-06-15T10:12:51.776Z,24.15
2018-06-15T10:13:51.775Z,24.30
2018-06-15T10:14:51.783Z,24.31
2018-06-15T10:15:51.777Z,24.34
2018-06-15T10:16:51.851Z,24.34
2018-06-15T10:17:51.787Z,24.44
2018-06-15T10:18:51.785Z,24.42
2018-06-15T10:19:51.779Z,24.44
2018-06-15T10:20:51.781Z,24.36
2018-06-15T10:21:51.793Z,24.30
2018-06-15T10:22:51.787Z,24.06
2018-06-15T10:23:51.785Z,23.86
2018-06-15T10:24:51.785Z,23.72
2018-06-15T10:25:51.790Z,23.71
2018-06-15T10:26:51.787Z,23.62
2018-06-15T10:27:51.789Z,23.60
2018-06-15T10:28:51.797Z,23.38
2018-06-15T10:29:51.803Z,23.35
2018-06-15T10:30:51.799Z,23.32
2018-06-15T10:31:51.801Z,23.31
2018-06-15T10:32:51.823Z,23.37
2018-06-15T10:33:51.793Z,23.50
2018-06-15T10:34:51.791Z,23.69
2018-06-15T10:35:51.791Z,23.89
2018-06-15T10:36:51.793Z,23.94
2018-06-15T10:37:51.803Z,23.99
2018-06-15T10:38:51.803Z,23.90
2018-06-15T10:39:51.804Z,23.72
2018-06-15T10:40:51.811Z,23.67
2018-06-15T10:41:51.797Z,23.74
2018-06-15T10:42:51.805Z,23.86
2018-06-15T10:43:51.809Z,24.12
2018-06-15T10:44:51.819Z,24.14
2018-06-15T10:45:51.800Z,24.14
2018-06-15T10:46:51.803Z,24.30
2018-06-15T10:47:51.815Z,24.15
2018-06-15T10:48:51.803Z,24.12
2018-06-15T10:49:51.811Z,24.06
2018-06-15T10:50:51.806Z,24.00
2018-06-15T10:51:51.805Z,24.09
2018-06-15T10:52:51.807Z,24.09
2018-06-15T10:53:51.814Z,24.11
2018-06-15T10:54:51.807Z,24.16
2018-06-15T10:55:51.816Z,24.12
2018-06-15T10:56:51.811Z,24.19
2018-06-15T10:57:51.813Z,24.29
2018-06-15T10:58:51.813Z,24.34
2018-06-15T10:59:51.817Z,24.48
2018-06-15T11:00:51.821Z,24.44
2018-06-15T11:01:51.820Z,24.44
2018-06-15T11:02:51.816Z,24.41
2018-06-15T11:03:51.824Z,24.59
2018-06-15T11:04:51.821Z,24.52
2018-06-15T11:05:51.820Z,24.42
2018-06-15T11:06:51.829Z,24.45
2018-06-15T11:07:51.834Z,24.31
2018-06-15T11:08:51.823Z,24.29
2018-06-15T11:09:51.829Z,24.46
2018-06-15T11:10:51.857Z,24.68
2018-06-15T11:11:51.826Z,24.87
2018-06-15T11:12:51.835Z,24.90
2018-06-15T11:13:51.843Z,24.99
2018-06-15T11:14:51.837Z,25.04
2018-06-15T11:15:51.830Z,25.09
2018-06-15T11:16:51.831Z,25.17
2018-06-15T11:17:51.838Z,25.17
2018-06-15T11:18:51.835Z,25.08
2018-06-15T11:19:51.864Z,25.04
2018-06-15T11:20:51.847Z,25.04
2018-06-15T11:21:51.849Z,25.09
2018-06-15T11:22:51.843Z,24.98
2018-06-15T11:23:51.846Z,24.94
2018-06-15T11:24:51.845Z,24.94
2018-06-15T11:25:51.846Z,24.70
2018-06-15T11:26:51.848Z,24.77
2018-06-15T11:27:51.859Z,24.71
2018-06-15T11:28:51.859Z,24.77
2018-06-15T11:29:51.859Z,24.80
2018-06-15T11:30:51.880Z,24.94
2018-06-15T11:31:51.864Z,24.80
2018-06-15T11:32:51.856Z,24.68
2018-06-15T11:33:51.859Z,24.60
2018-06-15T11:34:51.858Z,24.83
2018-06-15T11:35:51.865Z,24.93
2018-06-15T11:36:51.862Z,25.08
2018-06-15T11:37:51.871Z,25.01
2018-06-15T11:38:51.868Z,25.02
2018-06-15T11:39:51.876Z,25.12
2018-06-15T11:40:51.870Z,25.23
2018-06-15T11:41:51.884Z,25.24
2018-06-15T11:42:51.877Z,25.22
2018-06-15T11:43:51.879Z,25.05
2018-06-15T11:44:51.877Z,25.08
2018-06-15T11:45:51.883Z,25.12
2018-06-15T11:46:51.882Z,25.12
2018-06-15T11:47:51.885Z,25.23
2018-06-15T11:48:51.893Z,25.20
2018-06-15T11:49:51.883Z,25.26
2018-06-15T11:50:51.885Z,25.17
2018-06-15T11:51:51.888Z,25.12
2018-06-15T11:52:51.889Z,25.01
2018-06-15T11:53:51.903Z,25.05
2018-06-15T11:54:51.891Z,25.14
2018-06-15T11:55:51.895Z,25.05
2018-06-15T11:56:51.896Z,25.08
2018-06-15T11:57:51.898Z,25.02
2018-06-15T11:58:51.903Z,25.11
2018-06-15T11:59:51.905Z,25.24
2018-06-15T12:00:51.904Z,25.08
2018-06-15T12:01:52.034Z,25.11
2018-06-15T12:02:51.914Z,25.17
2018-06-15T12:03:51.909Z,24.92
2018-06-15T12:04:51.917Z,24.80
2018-06-15T12:05:51.911Z,24.86
2018-06-15T12:06:51.917Z,24.89
2018-06-15T12:07:51.986Z,24.92
2018-06-15T12:08:51.925Z,25.07
2018-06-15T12:09:51.925Z,25.08
2018-06-15T12:10:51.931Z,25.14
2018-06-15T12:11:51.921Z,25.17
2018-06-15T12:12:51.933Z,25.24
2018-06-15T12:13:51.931Z,25.41
2018-06-15T12:14:51.930Z,25.31
2018-06-15T12:15:51.928Z,25.42
2018-06-15T12:16:51.932Z,25.54
2018-06-15T12:17:51.934Z,25.66
2018-06-15T12:18:51.946Z,25.66
2018-06-15T12:19:51.945Z,25.71
2018-06-15T12:20:51.942Z,25.57
2018-06-15T12:21:51.951Z,25.57
2018-06-15T12:22:51.943Z,25.78
2018-06-15T12:23:51.947Z,25.75
2018-06-15T12:24:51.947Z,25.74
2018-06-15T12:25:51.956Z,25.74
2018-06-15T12:26:51.959Z,25.74
2018-06-15T12:27:51.957Z,25.71
2018-06-15T12:28:51.962Z,25.67
2018-06-15T12:29:51.957Z,25.66
2018-06-15T12:30:51.959Z,25.69
2018-06-15T12:31:51.959Z,25.57
2018-06-15T12:32:51.968Z,25.38
2018-06-15T12:33:51.968Z,25.19
2018-06-15T12:34:51.972Z,25.31
2018-06-15T12:35:51.969Z,25.29
2018-06-15T12:36:51.973Z,25.35
2018-06-15T12:37:51.973Z,25.35
2018-06-15T12:38:51.976Z,25.27
2018-06-15T12:39:51.988Z,25.31
2018-06-15T12:40:51.979Z,25.36
2018-06-15T12:41:51.992Z,25.45
2018-06-15T12:42:51.993Z,25.31
2018-06-15T12:43:51.991Z,25.48
2018-06-15T12:44:51.993Z,25.53
2018-06-15T12:45:52.064Z,25.61
2018-06-15T12:46:51.994Z,25.71
2018-06-15T12:47:51.994Z,25.78
2018-06-15T12:48:52.009Z,25.76
2018-06-15T12:49:52.004Z,25.72
2018-06-15T12:50:51.999Z,25.69
2018-06-15T12:51:52.006Z,25.79
2018-06-15T12:52:52.007Z,25.76